sensor_id;sensor_type;location;lat;lon;timestamp;P1;durP1;ratioP1;P2;durP2;ratioP2
18296;SDS011;18066;52.106;5.534;2023-02-21T00:00:16;48.27;;;23.37;;
18296;SDS011;18066;52.106;5.534;2023-02-21T00:03:01;39.63;;;21.50;;
18296;SDS011;18066;52.106;5.534;2023-02-21T00:05:45;43.43;;;21.77;;
18296;SDS011;18066;52.106;5.534;2023-02-21T00:08:29;48.40;;;22.33;;
18296;SDS011;18066;52.106;5.534;2023-02-21T00:11:14;42.17;;;21.23;;
18296;SDS011;18066;52.106;5.534;2023-02-21T00:13:58;37.90;;;20.60;;
18296;SDS011;18066;52.106;5.534;2023-02-21T00:16:43;46.77;;;22.63;;
18296;SDS011;18066;52.106;5.534;2023-02-21T00:19:29;43.83;;;22.87;;
18296;SDS011;18066;52.106;5.534;2023-02-21T00:22:13;37.67;;;21.17;;
18296;SDS011;18066;52.106;5.534;2023-02-21T00:24:57;41.30;;;20.83;;
18296;SDS011;18066;52.106;5.534;2023-02-21T00:27:41;38.87;;;21.10;;
18296;SDS011;18066;52.106;5.534;2023-02-21T00:30:25;40.67;;;21.27;;
18296;SDS011;18066;52.106;5.534;2023-02-21T00:33:11;37.67;;;21.30;;
18296;SDS011;18066;52.106;5.534;2023-02-21T00:35:55;37.83;;;20.63;;
18296;SDS011;18066;52.106;5.534;2023-02-21T00:38:39;44.47;;;21.43;;
18296;SDS011;18066;52.106;5.534;2023-02-21T00:41:23;44.30;;;20.63;;
18296;SDS011;18066;52.106;5.534;2023-02-21T00:44:07;44.67;;;20.93;;
18296;SDS011;18066;52.106;5.534;2023-02-21T00:46:52;43.67;;;21.43;;
18296;SDS011;18066;52.106;5.534;2023-02-21T00:49:38;45.07;;;22.23;;
18296;SDS011;18066;52.106;5.534;2023-02-21T00:52:22;42.43;;;21.23;;
18296;SDS011;18066;52.106;5.534;2023-02-21T00:55:06;46.40;;;21.20;;
18296;SDS011;18066;52.106;5.534;2023-02-21T00:57:51;49.23;;;22.43;;
18296;SDS011;18066;52.106;5.534;2023-02-21T01:00:35;36.37;;;20.20;;
18296;SDS011;18066;52.106;5.534;2023-02-21T01:03:19;35.90;;;20.07;;
18296;SDS011;18066;52.106;5.534;2023-02-21T01:06:08;47.80;;;22.10;;
18296;SDS011;18066;52.106;5.534;2023-02-21T01:08:53;40.87;;;19.70;;
18296;SDS011;18066;52.106;5.534;2023-02-21T01:11:37;44.47;;;20.23;;
18296;SDS011;18066;52.106;5.534;2023-02-21T01:14:21;37.30;;;19.50;;
18296;SDS011;18066;52.106;5.534;2023-02-21T01:17:05;46.57;;;20.70;;
18296;SDS011;18066;52.106;5.534;2023-02-21T01:19:50;41.03;;;20.13;;
18296;SDS011;18066;52.106;5.534;2023-02-21T01:22:35;45.03;;;21.10;;
18296;SDS011;18066;52.106;5.534;2023-02-21T01:25:19;40.93;;;20.67;;
18296;SDS011;18066;52.106;5.534;2023-02-21T01:28:04;44.67;;;21.47;;
18296;SDS011;18066;52.106;5.534;2023-02-21T01:30:48;47.53;;;21.97;;
18296;SDS011;18066;52.106;5.534;2023-02-21T01:33:36;47.93;;;21.13;;
18296;SDS011;18066;52.106;5.534;2023-02-21T01:36:21;52.63;;;21.93;;
18296;SDS011;18066;52.106;5.534;2023-02-21T01:39:07;49.67;;;23.00;;
18296;SDS011;18066;52.106;5.534;2023-02-21T01:41:51;47.57;;;20.90;;
18296;SDS011;18066;52.106;5.534;2023-02-21T01:44:36;49.17;;;21.40;;
18296;SDS011;18066;52.106;5.534;2023-02-21T01:47:22;46.87;;;22.97;;
18296;SDS011;18066;52.106;5.534;2023-02-21T01:50:10;49.27;;;22.23;;
18296;SDS011;18066;52.106;5.534;2023-02-21T01:52:59;49.63;;;21.57;;
18296;SDS011;18066;52.106;5.534;2023-02-21T01:55:47;54.37;;;22.57;;
18296;SDS011;18066;52.106;5.534;2023-02-21T01:58:31;59.00;;;22.07;;
18296;SDS011;18066;52.106;5.534;2023-02-21T02:01:19;41.30;;;20.80;;
18296;SDS011;18066;52.106;5.534;2023-02-21T02:04:11;49.23;;;22.07;;
18296;SDS011;18066;52.106;5.534;2023-02-21T02:06:55;61.10;;;24.43;;
18296;SDS011;18066;52.106;5.534;2023-02-21T02:09:39;43.43;;;22.17;;
18296;SDS011;18066;52.106;5.534;2023-02-21T02:15:26;48.27;;;23.13;;
18296;SDS011;18066;52.106;5.534;2023-02-21T02:18:08;44.23;;;22.63;;
18296;SDS011;18066;52.106;5.534;2023-02-21T02:21:08;47.93;;;23.37;;
18296;SDS011;18066;52.106;5.534;2023-02-21T02:24:18;45.67;;;23.73;;
18296;SDS011;18066;52.106;5.534;2023-02-21T02:36:10;37.70;;;22.20;;
18296;SDS011;18066;52.106;5.534;2023-02-21T02:38:42;45.10;;;22.00;;
18296;SDS011;18066;52.106;5.534;2023-02-21T02:41:18;53.87;;;23.77;;
18296;SDS011;18066;52.106;5.534;2023-02-21T02:43:50;48.93;;;24.37;;
18296;SDS011;18066;52.106;5.534;2023-02-21T02:46:21;55.77;;;24.93;;
18296;SDS011;18066;52.106;5.534;2023-02-21T02:48:52;46.43;;;23.97;;
18296;SDS011;18066;52.106;5.534;2023-02-21T02:51:25;51.60;;;22.77;;
18296;SDS011;18066;52.106;5.534;2023-02-21T02:53:53;55.67;;;24.40;;
18296;SDS011;18066;52.106;5.534;2023-02-21T02:56:20;51.37;;;24.67;;
18296;SDS011;18066;52.106;5.534;2023-02-21T02:58:47;57.27;;;25.10;;
18296;SDS011;18066;52.106;5.534;2023-02-21T03:01:22;60.60;;;25.47;;
18296;SDS011;18066;52.106;5.534;2023-02-21T03:04:23;49.60;;;23.03;;
18296;SDS011;18066;52.106;5.534;2023-02-21T03:07:05;59.13;;;25.40;;
18296;SDS011;18066;52.106;5.534;2023-02-21T03:09:39;65.00;;;25.73;;
18296;SDS011;18066;52.106;5.534;2023-02-21T03:12:15;62.20;;;26.60;;
18296;SDS011;18066;52.106;5.534;2023-02-21T03:14:49;58.43;;;27.50;;
18296;SDS011;18066;52.106;5.534;2023-02-21T03:17:24;67.10;;;26.10;;
18296;SDS011;18066;52.106;5.534;2023-02-21T03:19:53;59.53;;;25.97;;
18296;SDS011;18066;52.106;5.534;2023-02-21T03:22:24;60.17;;;25.03;;
18296;SDS011;18066;52.106;5.534;2023-02-21T03:24:55;61.97;;;27.77;;
18296;SDS011;18066;52.106;5.534;2023-02-21T03:27:25;58.67;;;25.33;;
18296;SDS011;18066;52.106;5.534;2023-02-21T03:29:53;59.40;;;26.37;;
18296;SDS011;18066;52.106;5.534;2023-02-21T03:32:23;69.60;;;25.60;;
18296;SDS011;18066;52.106;5.534;2023-02-21T03:34:51;67.17;;;26.33;;
18296;SDS011;18066;52.106;5.534;2023-02-21T03:37:19;64.57;;;26.47;;
18296;SDS011;18066;52.106;5.534;2023-02-21T03:39:55;57.90;;;26.67;;
18296;SDS011;18066;52.106;5.534;2023-02-21T03:42:21;57.27;;;26.23;;
18296;SDS011;18066;52.106;5.534;2023-02-21T03:44:48;79.53;;;28.00;;
18296;SDS011;18066;52.106;5.534;2023-02-21T03:47:15;67.63;;;28.50;;
18296;SDS011;18066;52.106;5.534;2023-02-21T03:49:42;69.33;;;27.97;;
18296;SDS011;18066;52.106;5.534;2023-02-21T03:52:09;63.37;;;28.57;;
18296;SDS011;18066;52.106;5.534;2023-02-21T03:54:37;62.73;;;27.70;;
18296;SDS011;18066;52.106;5.534;2023-02-21T03:57:05;66.83;;;27.83;;
18296;SDS011;18066;52.106;5.534;2023-02-21T03:59:32;58.93;;;27.80;;
18296;SDS011;18066;52.106;5.534;2023-02-21T04:01:59;67.00;;;27.77;;
18296;SDS011;18066;52.106;5.534;2023-02-21T04:04:26;65.80;;;28.70;;
18296;SDS011;18066;52.106;5.534;2023-02-21T04:06:52;73.47;;;27.87;;
18296;SDS011;18066;52.106;5.534;2023-02-21T04:09:19;67.13;;;29.33;;
18296;SDS011;18066;52.106;5.534;2023-02-21T04:11:47;74.40;;;28.43;;
18296;SDS011;18066;52.106;5.534;2023-02-21T04:14:15;65.50;;;28.93;;
18296;SDS011;18066;52.106;5.534;2023-02-21T04:16:42;67.03;;;29.03;;
18296;SDS011;18066;52.106;5.534;2023-02-21T04:19:09;66.73;;;29.07;;
18296;SDS011;18066;52.106;5.534;2023-02-21T04:21:35;69.07;;;29.03;;
18296;SDS011;18066;52.106;5.534;2023-02-21T04:24:03;64.90;;;27.53;;
18296;SDS011;18066;52.106;5.534;2023-02-21T04:26:30;71.23;;;28.43;;
18296;SDS011;18066;52.106;5.534;2023-02-21T04:28:59;68.23;;;30.03;;
18296;SDS011;18066;52.106;5.534;2023-02-21T04:31:27;70.57;;;30.03;;
18296;SDS011;18066;52.106;5.534;2023-02-21T04:33:54;76.70;;;30.00;;
18296;SDS011;18066;52.106;5.534;2023-02-21T04:36:20;69.50;;;29.07;;
18296;SDS011;18066;52.106;5.534;2023-02-21T04:38:47;66.30;;;29.53;;
18296;SDS011;18066;52.106;5.534;2023-02-21T04:41:14;65.80;;;30.10;;
18296;SDS011;18066;52.106;5.534;2023-02-21T04:43:42;78.53;;;31.97;;
18296;SDS011;18066;52.106;5.534;2023-02-21T04:46:09;78.07;;;30.73;;
18296;SDS011;18066;52.106;5.534;2023-02-21T04:48:41;80.80;;;32.60;;
18296;SDS011;18066;52.106;5.534;2023-02-21T04:51:08;67.47;;;29.43;;
18296;SDS011;18066;52.106;5.534;2023-02-21T04:53:35;70.23;;;30.60;;
18296;SDS011;18066;52.106;5.534;2023-02-21T04:56:02;72.00;;;31.43;;
18296;SDS011;18066;52.106;5.534;2023-02-21T04:58:29;82.00;;;39.67;;
18296;SDS011;18066;52.106;5.534;2023-02-21T05:00:56;79.00;;;32.90;;
18296;SDS011;18066;52.106;5.534;2023-02-21T05:03:23;74.33;;;30.53;;
18296;SDS011;18066;52.106;5.534;2023-02-21T05:05:51;66.87;;;29.90;;
18296;SDS011;18066;52.106;5.534;2023-02-21T05:08:18;74.53;;;29.13;;
18296;SDS011;18066;52.106;5.534;2023-02-21T05:10:45;73.87;;;30.80;;
18296;SDS011;18066;52.106;5.534;2023-02-21T05:13:12;72.97;;;30.60;;
18296;SDS011;18066;52.106;5.534;2023-02-21T05:15:39;74.27;;;29.60;;
18296;SDS011;18066;52.106;5.534;2023-02-21T05:18:06;72.80;;;29.80;;
18296;SDS011;18066;52.106;5.534;2023-02-21T05:20:33;74.20;;;30.40;;
18296;SDS011;18066;52.106;5.534;2023-02-21T05:23:01;80.47;;;31.73;;
18296;SDS011;18066;52.106;5.534;2023-02-21T05:25:28;78.33;;;30.63;;
18296;SDS011;18066;52.106;5.534;2023-02-21T05:27:54;77.67;;;32.20;;
18296;SDS011;18066;52.106;5.534;2023-02-21T05:30:22;72.67;;;29.83;;
18296;SDS011;18066;52.106;5.534;2023-02-21T05:32:49;82.60;;;30.93;;
18296;SDS011;18066;52.106;5.534;2023-02-21T05:35:16;82.97;;;33.17;;
18296;SDS011;18066;52.106;5.534;2023-02-21T05:37:44;79.73;;;29.77;;
18296;SDS011;18066;52.106;5.534;2023-02-21T05:40:12;82.97;;;32.13;;
18296;SDS011;18066;52.106;5.534;2023-02-21T05:42:41;77.73;;;32.27;;
18296;SDS011;18066;52.106;5.534;2023-02-21T05:45:08;88.13;;;32.40;;
18296;SDS011;18066;52.106;5.534;2023-02-21T05:47:35;74.97;;;29.27;;
18296;SDS011;18066;52.106;5.534;2023-02-21T05:50:02;77.37;;;32.57;;
18296;SDS011;18066;52.106;5.534;2023-02-21T05:52:30;82.10;;;32.30;;
18296;SDS011;18066;52.106;5.534;2023-02-21T05:54:57;94.87;;;33.87;;
18296;SDS011;18066;52.106;5.534;2023-02-21T05:57:25;81.77;;;33.10;;
18296;SDS011;18066;52.106;5.534;2023-02-21T05:59:51;74.13;;;31.43;;
18296;SDS011;18066;52.106;5.534;2023-02-21T06:02:18;92.00;;;34.43;;
18296;SDS011;18066;52.106;5.534;2023-02-21T06:04:45;89.13;;;32.10;;
18296;SDS011;18066;52.106;5.534;2023-02-21T06:07:13;95.93;;;34.13;;
18296;SDS011;18066;52.106;5.534;2023-02-21T06:09:39;98.87;;;34.13;;
18296;SDS011;18066;52.106;5.534;2023-02-21T06:12:06;77.80;;;31.77;;
18296;SDS011;18066;52.106;5.534;2023-02-21T06:14:34;97.07;;;34.37;;
18296;SDS011;18066;52.106;5.534;2023-02-21T06:17:01;91.37;;;33.27;;
18296;SDS011;18066;52.106;5.534;2023-02-21T06:19:28;85.30;;;31.80;;
18296;SDS011;18066;52.106;5.534;2023-02-21T06:21:55;86.40;;;34.80;;
18296;SDS011;18066;52.106;5.534;2023-02-21T06:24:21;93.17;;;34.43;;
18296;SDS011;18066;52.106;5.534;2023-02-21T06:26:48;89.03;;;33.30;;
18296;SDS011;18066;52.106;5.534;2023-02-21T06:29:15;90.47;;;32.43;;
18296;SDS011;18066;52.106;5.534;2023-02-21T06:31:43;98.73;;;34.13;;
18296;SDS011;18066;52.106;5.534;2023-02-21T06:34:10;102.10;;;34.23;;
18296;SDS011;18066;52.106;5.534;2023-02-21T06:36:37;97.10;;;35.07;;
18296;SDS011;18066;52.106;5.534;2023-02-21T06:39:04;101.50;;;34.97;;
18296;SDS011;18066;52.106;5.534;2023-02-21T06:41:32;93.10;;;33.40;;
18296;SDS011;18066;52.106;5.534;2023-02-21T06:43:58;95.23;;;32.93;;
18296;SDS011;18066;52.106;5.534;2023-02-21T06:46:26;96.97;;;33.67;;
18296;SDS011;18066;52.106;5.534;2023-02-21T06:48:56;96.97;;;35.53;;
18296;SDS011;18066;52.106;5.534;2023-02-21T06:51:23;97.93;;;33.20;;
18296;SDS011;18066;52.106;5.534;2023-02-21T06:53:54;99.00;;;35.07;;
18296;SDS011;18066;52.106;5.534;2023-02-21T06:56:21;95.90;;;33.00;;
18296;SDS011;18066;52.106;5.534;2023-02-21T06:58:48;95.67;;;34.10;;
18296;SDS011;18066;52.106;5.534;2023-02-21T07:01:15;93.57;;;34.57;;
18296;SDS011;18066;52.106;5.534;2023-02-21T07:03:41;101.53;;;35.10;;
18296;SDS011;18066;52.106;5.534;2023-02-21T07:06:10;105.07;;;35.80;;
18296;SDS011;18066;52.106;5.534;2023-02-21T07:08:37;102.27;;;35.03;;
18296;SDS011;18066;52.106;5.534;2023-02-21T07:11:04;99.63;;;33.23;;
18296;SDS011;18066;52.106;5.534;2023-02-21T07:13:31;104.70;;;35.10;;
18296;SDS011;18066;52.106;5.534;2023-02-21T07:15:59;106.97;;;34.73;;
18296;SDS011;18066;52.106;5.534;2023-02-21T07:18:26;99.20;;;33.43;;
18296;SDS011;18066;52.106;5.534;2023-02-21T07:20:53;104.33;;;35.83;;
18296;SDS011;18066;52.106;5.534;2023-02-21T07:23:21;106.63;;;35.20;;
18296;SDS011;18066;52.106;5.534;2023-02-21T07:25:48;99.97;;;32.60;;
18296;SDS011;18066;52.106;5.534;2023-02-21T07:28:15;110.83;;;36.50;;
18296;SDS011;18066;52.106;5.534;2023-02-21T07:30:41;115.33;;;35.63;;
18296;SDS011;18066;52.106;5.534;2023-02-21T07:33:08;106.77;;;35.83;;
18296;SDS011;18066;52.106;5.534;2023-02-21T07:35:35;110.33;;;36.80;;
18296;SDS011;18066;52.106;5.534;2023-02-21T07:38:02;117.97;;;36.77;;
18296;SDS011;18066;52.106;5.534;2023-02-21T07:40:30;112.20;;;36.83;;
18296;SDS011;18066;52.106;5.534;2023-02-21T07:42:57;112.83;;;37.97;;
18296;SDS011;18066;52.106;5.534;2023-02-21T07:45:23;116.20;;;38.00;;
18296;SDS011;18066;52.106;5.534;2023-02-21T07:47:50;124.53;;;38.20;;
18296;SDS011;18066;52.106;5.534;2023-02-21T07:50:17;126.93;;;37.73;;
18296;SDS011;18066;52.106;5.534;2023-02-21T07:52:47;115.50;;;37.57;;
18296;SDS011;18066;52.106;5.534;2023-02-21T07:55:14;133.43;;;40.37;;
18296;SDS011;18066;52.106;5.534;2023-02-21T07:57:42;130.20;;;37.47;;
18296;SDS011;18066;52.106;5.534;2023-02-21T08:00:10;122.60;;;37.70;;
18296;SDS011;18066;52.106;5.534;2023-02-21T08:02:37;117.23;;;36.10;;
18296;SDS011;18066;52.106;5.534;2023-02-21T08:05:04;116.70;;;36.10;;
18296;SDS011;18066;52.106;5.534;2023-02-21T08:07:31;134.13;;;38.57;;
18296;SDS011;18066;52.106;5.534;2023-02-21T08:09:58;124.43;;;37.17;;
18296;SDS011;18066;52.106;5.534;2023-02-21T08:12:25;128.70;;;38.57;;
18296;SDS011;18066;52.106;5.534;2023-02-21T08:14:53;124.63;;;37.17;;
18296;SDS011;18066;52.106;5.534;2023-02-21T08:17:20;115.67;;;35.70;;
18296;SDS011;18066;52.106;5.534;2023-02-21T08:19:47;129.27;;;39.57;;
18296;SDS011;18066;52.106;5.534;2023-02-21T08:22:13;124.83;;;35.83;;
18296;SDS011;18066;52.106;5.534;2023-02-21T08:24:40;122.50;;;37.80;;
18296;SDS011;18066;52.106;5.534;2023-02-21T08:27:07;116.67;;;37.90;;
18296;SDS011;18066;52.106;5.534;2023-02-21T08:29:34;128.30;;;39.57;;
18296;SDS011;18066;52.106;5.534;2023-02-21T08:32:02;122.40;;;37.77;;
18296;SDS011;18066;52.106;5.534;2023-02-21T08:34:29;112.17;;;37.47;;
18296;SDS011;18066;52.106;5.534;2023-02-21T08:36:55;133.73;;;39.73;;
18296;SDS011;18066;52.106;5.534;2023-02-21T08:39:22;124.27;;;38.33;;
18296;SDS011;18066;52.106;5.534;2023-02-21T08:41:49;114.43;;;34.67;;
18296;SDS011;18066;52.106;5.534;2023-02-21T08:44:16;112.97;;;36.83;;
18296;SDS011;18066;52.106;5.534;2023-02-21T08:46:45;124.10;;;36.90;;
18296;SDS011;18066;52.106;5.534;2023-02-21T08:49:13;121.63;;;35.53;;
18296;SDS011;18066;52.106;5.534;2023-02-21T08:51:40;118.77;;;35.37;;
18296;SDS011;18066;52.106;5.534;2023-02-21T08:54:07;109.00;;;35.23;;
18296;SDS011;18066;52.106;5.534;2023-02-21T08:56:34;109.27;;;33.10;;
18296;SDS011;18066;52.106;5.534;2023-02-21T08:59:01;96.83;;;31.50;;
18296;SDS011;18066;52.106;5.534;2023-02-21T09:01:32;103.10;;;32.00;;
18296;SDS011;18066;52.106;5.534;2023-02-21T09:04:00;98.53;;;31.87;;
18296;SDS011;18066;52.106;5.534;2023-02-21T09:06:28;103.07;;;32.50;;
18296;SDS011;18066;52.106;5.534;2023-02-21T09:08:55;87.13;;;30.43;;
18296;SDS011;18066;52.106;5.534;2023-02-21T09:11:22;94.63;;;29.60;;
18296;SDS011;18066;52.106;5.534;2023-02-21T09:13:49;83.30;;;29.77;;
18296;SDS011;18066;52.106;5.534;2023-02-21T09:16:17;74.67;;;27.63;;
18296;SDS011;18066;52.106;5.534;2023-02-21T09:18:44;80.23;;;25.87;;
18296;SDS011;18066;52.106;5.534;2023-02-21T09:21:18;82.10;;;27.17;;
18296;SDS011;18066;52.106;5.534;2023-02-21T09:23:47;73.20;;;25.93;;
18296;SDS011;18066;52.106;5.534;2023-02-21T09:26:16;68.07;;;25.17;;
18296;SDS011;18066;52.106;5.534;2023-02-21T09:28:43;67.87;;;24.70;;
18296;SDS011;18066;52.106;5.534;2023-02-21T09:31:10;61.87;;;24.30;;
18296;SDS011;18066;52.106;5.534;2023-02-21T09:33:37;69.73;;;26.43;;
18296;SDS011;18066;52.106;5.534;2023-02-21T09:36:05;61.67;;;24.87;;
18296;SDS011;18066;52.106;5.534;2023-02-21T09:38:33;63.27;;;24.40;;
18296;SDS011;18066;52.106;5.534;2023-02-21T09:41:02;64.83;;;23.47;;
18296;SDS011;18066;52.106;5.534;2023-02-21T09:43:32;71.73;;;25.10;;
18296;SDS011;18066;52.106;5.534;2023-02-21T09:46:01;62.70;;;22.93;;
18296;SDS011;18066;52.106;5.534;2023-02-21T09:48:32;61.97;;;24.00;;
18296;SDS011;18066;52.106;5.534;2023-02-21T09:51:00;57.27;;;22.33;;
18296;SDS011;18066;52.106;5.534;2023-02-21T09:53:31;59.67;;;22.37;;
18296;SDS011;18066;52.106;5.534;2023-02-21T09:56:04;55.77;;;23.03;;
18296;SDS011;18066;52.106;5.534;2023-02-21T09:58:32;62.27;;;24.27;;
18296;SDS011;18066;52.106;5.534;2023-02-21T10:01:02;62.07;;;23.67;;
18296;SDS011;18066;52.106;5.534;2023-02-21T10:03:42;57.43;;;23.77;;
18296;SDS011;18066;52.106;5.534;2023-02-21T10:06:17;56.97;;;22.17;;
18296;SDS011;18066;52.106;5.534;2023-02-21T10:08:56;63.57;;;23.90;;
18296;SDS011;18066;52.106;5.534;2023-02-21T10:11:32;61.27;;;23.13;;
18296;SDS011;18066;52.106;5.534;2023-02-21T10:14:11;53.90;;;22.73;;
18296;SDS011;18066;52.106;5.534;2023-02-21T10:16:46;61.40;;;24.80;;
18296;SDS011;18066;52.106;5.534;2023-02-21T10:19:17;58.90;;;22.67;;
18296;SDS011;18066;52.106;5.534;2023-02-21T10:21:53;72.83;;;27.27;;
18296;SDS011;18066;52.106;5.534;2023-02-21T10:24:24;61.57;;;24.97;;
18296;SDS011;18066;52.106;5.534;2023-02-21T10:26:55;62.50;;;23.70;;
18296;SDS011;18066;52.106;5.534;2023-02-21T10:29:26;64.30;;;24.63;;
18296;SDS011;18066;52.106;5.534;2023-02-21T10:32:01;67.17;;;25.13;;
18296;SDS011;18066;52.106;5.534;2023-02-21T10:34:29;67.47;;;25.27;;
18296;SDS011;18066;52.106;5.534;2023-02-21T10:37:00;68.40;;;27.13;;
18296;SDS011;18066;52.106;5.534;2023-02-21T10:39:33;68.87;;;27.83;;
18296;SDS011;18066;52.106;5.534;2023-02-21T10:42:07;70.07;;;26.47;;
18296;SDS011;18066;52.106;5.534;2023-02-21T10:44:37;63.03;;;26.13;;
18296;SDS011;18066;52.106;5.534;2023-02-21T10:47:06;69.73;;;24.13;;
18296;SDS011;18066;52.106;5.534;2023-02-21T10:49:39;64.03;;;25.97;;
18296;SDS011;18066;52.106;5.534;2023-02-21T10:52:13;74.43;;;25.90;;
18296;SDS011;18066;52.106;5.534;2023-02-21T10:54:41;64.57;;;25.83;;
18296;SDS011;18066;52.106;5.534;2023-02-21T10:57:27;71.03;;;27.60;;
18296;SDS011;18066;52.106;5.534;2023-02-21T10:59:56;69.03;;;27.30;;
18296;SDS011;18066;52.106;5.534;2023-02-21T11:02:28;61.80;;;25.83;;
18296;SDS011;18066;52.106;5.534;2023-02-21T11:05:06;64.53;;;24.40;;
18296;SDS011;18066;52.106;5.534;2023-02-21T11:07:35;64.33;;;24.87;;
18296;SDS011;18066;52.106;5.534;2023-02-21T11:10:02;67.43;;;26.30;;
18296;SDS011;18066;52.106;5.534;2023-02-21T11:12:56;66.73;;;25.03;;
18296;SDS011;18066;52.106;5.534;2023-02-21T11:15:27;74.63;;;26.70;;
18296;SDS011;18066;52.106;5.534;2023-02-21T11:18:01;71.30;;;27.10;;
18296;SDS011;18066;52.106;5.534;2023-02-21T11:20:37;78.47;;;27.77;;
18296;SDS011;18066;52.106;5.534;2023-02-21T11:23:04;75.07;;;28.47;;
18296;SDS011;18066;52.106;5.534;2023-02-21T11:25:42;79.90;;;28.03;;
18296;SDS011;18066;52.106;5.534;2023-02-21T11:28:18;87.80;;;29.97;;
18296;SDS011;18066;52.106;5.534;2023-02-21T11:30:47;79.43;;;28.43;;
18296;SDS011;18066;52.106;5.534;2023-02-21T11:33:17;78.10;;;27.97;;
18296;SDS011;18066;52.106;5.534;2023-02-21T11:35:46;74.97;;;28.27;;
18296;SDS011;18066;52.106;5.534;2023-02-21T11:38:32;84.13;;;28.80;;
18296;SDS011;18066;52.106;5.534;2023-02-21T11:41:00;83.63;;;27.57;;
18296;SDS011;18066;52.106;5.534;2023-02-21T11:43:30;89.90;;;29.57;;
18296;SDS011;18066;52.106;5.534;2023-02-21T11:46:09;93.93;;;30.93;;
18296;SDS011;18066;52.106;5.534;2023-02-21T11:48:43;93.17;;;29.20;;
18296;SDS011;18066;52.106;5.534;2023-02-21T11:51:28;84.57;;;28.53;;
18296;SDS011;18066;52.106;5.534;2023-02-21T11:54:03;84.10;;;29.00;;
18296;SDS011;18066;52.106;5.534;2023-02-21T11:56:34;76.73;;;29.17;;
18296;SDS011;18066;52.106;5.534;2023-02-21T11:59:12;85.07;;;29.20;;
18296;SDS011;18066;52.106;5.534;2023-02-21T12:01:51;82.13;;;27.07;;
18296;SDS011;18066;52.106;5.534;2023-02-21T12:07:16;84.27;;;28.23;;
18296;SDS011;18066;52.106;5.534;2023-02-21T12:09:55;80.53;;;28.43;;
18296;SDS011;18066;52.106;5.534;2023-02-21T12:12:33;79.80;;;28.93;;
18296;SDS011;18066;52.106;5.534;2023-02-21T12:15:13;79.03;;;26.77;;
18296;SDS011;18066;52.106;5.534;2023-02-21T12:21:00;70.27;;;25.73;;
18296;SDS011;18066;52.106;5.534;2023-02-21T12:23:42;76.73;;;24.97;;
18296;SDS011;18066;52.106;5.534;2023-02-21T12:26:20;71.57;;;23.67;;
18296;SDS011;18066;52.106;5.534;2023-02-21T12:29:02;68.10;;;24.50;;
18296;SDS011;18066;52.106;5.534;2023-02-21T12:31:49;66.77;;;23.00;;
18296;SDS011;18066;52.106;5.534;2023-02-21T12:34:32;57.13;;;21.37;;
18296;SDS011;18066;52.106;5.534;2023-02-21T12:37:16;60.93;;;20.70;;
18296;SDS011;18066;52.106;5.534;2023-02-21T12:39:55;57.23;;;21.40;;
18296;SDS011;18066;52.106;5.534;2023-02-21T12:42:39;50.73;;;18.07;;
18296;SDS011;18066;52.106;5.534;2023-02-21T12:45:27;45.83;;;17.77;;
18296;SDS011;18066;52.106;5.534;2023-02-21T12:48:21;50.20;;;18.30;;
18296;SDS011;18066;52.106;5.534;2023-02-21T12:50:55;53.47;;;18.07;;
18296;SDS011;18066;52.106;5.534;2023-02-21T12:53:28;49.27;;;16.40;;
18296;SDS011;18066;52.106;5.534;2023-02-21T12:56:00;40.17;;;15.87;;
18296;SDS011;18066;52.106;5.534;2023-02-21T12:58:32;43.30;;;16.80;;
18296;SDS011;18066;52.106;5.534;2023-02-21T13:01:04;39.53;;;15.33;;
18296;SDS011;18066;52.106;5.534;2023-02-21T13:03:41;35.77;;;14.30;;
18296;SDS011;18066;52.106;5.534;2023-02-21T13:06:17;34.70;;;13.30;;
18296;SDS011;18066;52.106;5.534;2023-02-21T13:08:55;28.10;;;12.37;;
18296;SDS011;18066;52.106;5.534;2023-02-21T13:11:29;30.43;;;11.53;;
18296;SDS011;18066;52.106;5.534;2023-02-21T13:14:00;26.30;;;10.67;;
18296;SDS011;18066;52.106;5.534;2023-02-21T13:16:27;26.27;;;11.60;;
18296;SDS011;18066;52.106;5.534;2023-02-21T13:18:56;24.90;;;11.43;;
18296;SDS011;18066;52.106;5.534;2023-02-21T13:21:32;26.93;;;11.97;;
18296;SDS011;18066;52.106;5.534;2023-02-21T13:24:13;26.03;;;11.27;;
18296;SDS011;18066;52.106;5.534;2023-02-21T13:27:03;26.83;;;10.93;;
18296;SDS011;18066;52.106;5.534;2023-02-21T13:29:45;23.53;;;10.83;;
18296;SDS011;18066;52.106;5.534;2023-02-21T13:32:14;23.07;;;10.13;;
18296;SDS011;18066;52.106;5.534;2023-02-21T13:34:45;21.13;;;9.70;;
18296;SDS011;18066;52.106;5.534;2023-02-21T13:37:15;23.87;;;10.00;;
18296;SDS011;18066;52.106;5.534;2023-02-21T13:39:45;21.50;;;10.50;;
18296;SDS011;18066;52.106;5.534;2023-02-21T13:42:16;21.40;;;9.47;;
18296;SDS011;18066;52.106;5.534;2023-02-21T13:44:45;24.07;;;9.63;;
18296;SDS011;18066;52.106;5.534;2023-02-21T13:47:14;18.63;;;9.93;;
18296;SDS011;18066;52.106;5.534;2023-02-21T13:49:43;18.17;;;8.77;;
18296;SDS011;18066;52.106;5.534;2023-02-21T13:52:27;17.53;;;9.13;;
18296;SDS011;18066;52.106;5.534;2023-02-21T13:58:05;21.57;;;9.40;;
18296;SDS011;18066;52.106;5.534;2023-02-21T14:01:16;18.20;;;8.83;;
18296;SDS011;18066;52.106;5.534;2023-02-21T14:03:47;19.70;;;8.90;;
18296;SDS011;18066;52.106;5.534;2023-02-21T14:06:29;23.13;;;9.90;;
18296;SDS011;18066;52.106;5.534;2023-02-21T14:08:58;19.07;;;9.03;;
18296;SDS011;18066;52.106;5.534;2023-02-21T14:11:29;19.43;;;9.57;;
18296;SDS011;18066;52.106;5.534;2023-02-21T14:14:02;19.00;;;9.53;;
18296;SDS011;18066;52.106;5.534;2023-02-21T14:16:45;21.00;;;9.80;;
18296;SDS011;18066;52.106;5.534;2023-02-21T14:19:17;19.87;;;9.10;;
18296;SDS011;18066;52.106;5.534;2023-02-21T14:21:49;20.47;;;9.83;;
18296;SDS011;18066;52.106;5.534;2023-02-21T14:24:22;17.57;;;9.57;;
18296;SDS011;18066;52.106;5.534;2023-02-21T14:26:52;22.87;;;10.70;;
18296;SDS011;18066;52.106;5.534;2023-02-21T14:29:29;25.90;;;10.87;;
18296;SDS011;18066;52.106;5.534;2023-02-21T14:34:51;24.83;;;12.00;;
18296;SDS011;18066;52.106;5.534;2023-02-21T14:37:23;29.03;;;12.33;;
18296;SDS011;18066;52.106;5.534;2023-02-21T14:39:54;27.93;;;12.90;;
18296;SDS011;18066;52.106;5.534;2023-02-21T14:42:30;26.67;;;12.93;;
18296;SDS011;18066;52.106;5.534;2023-02-21T14:45:14;24.03;;;10.93;;
18296;SDS011;18066;52.106;5.534;2023-02-21T14:48:08;28.87;;;11.90;;
18296;SDS011;18066;52.106;5.534;2023-02-21T14:51:03;24.97;;;11.60;;
18296;SDS011;18066;52.106;5.534;2023-02-21T14:56:43;24.40;;;11.70;;
18296;SDS011;18066;52.106;5.534;2023-02-21T15:02:13;25.13;;;11.50;;
18296;SDS011;18066;52.106;5.534;2023-02-21T15:04:50;24.23;;;11.77;;
18296;SDS011;18066;52.106;5.534;2023-02-21T15:07:23;23.30;;;12.43;;
18296;SDS011;18066;52.106;5.534;2023-02-21T15:10:05;24.20;;;10.77;;
18296;SDS011;18066;52.106;5.534;2023-02-21T15:12:41;20.70;;;10.27;;
18296;SDS011;18066;52.106;5.534;2023-02-21T15:15:13;20.23;;;10.80;;
18296;SDS011;18066;52.106;5.534;2023-02-21T15:17:42;22.37;;;10.80;;
18296;SDS011;18066;52.106;5.534;2023-02-21T15:20:19;18.93;;;10.23;;
18296;SDS011;18066;52.106;5.534;2023-02-21T15:22:53;20.33;;;10.87;;
18296;SDS011;18066;52.106;5.534;2023-02-21T15:25:22;21.30;;;11.27;;